Albuquerque, NM

8:19 PM MDT on June 23, 2017 (GMT -0600)
Old Town | | Change Station
Active Advisory: Wind Advisory

Elev 4950 ft 35.09 °N, 106.67 °W | Updated 8 seconds ago

Clear
Clear
85.5 °F
Feels Like 84 °F
N
18.0
Wind Variable Wind from SE

Today
High -- | Low -- °F
--% Chance of Precip.
Yesterday
High -- | Low -- °F
Precip. -- in
Pressure 29.76 in
Visibility 10.0 miles
Clouds Few 6000 ft
Few 14000 ft
Heat Index 84 °F
Dew Point 54 °F
Humidity 34%
Rainfall 0.00 in
Snow Depth Not available.
5:53 AM 8:24 PM
Waning Crescent, 0% visible
METAR KABQ 240152Z 11019KT 10SM FEW060 FEW140 29/12 A3004 RMK AO2 PK WND 11027/0128 WSHFT 0039 SLP077 T02890117
Pressure 29.76 in
Visibility 10.0 miles
Clouds Few 6000 ft
Few 14000 ft
Heat Index 84 °F
Dew Point 54 °F
Humidity 34%
Rainfall 0.00 in
Snow Depth Not available.
5:53 AM 8:24 PM
Waning Crescent, 0% visible
METAR KABQ 240152Z 11019KT 10SM FEW060 FEW140 29/12 A3004 RMK AO2 PK WND 11027/0128 WSHFT 0039 SLP077 T02890117

Get Your Daily Forecast Email!

Thanks for signing up!

Be on the lookout for a verification email in your inbox.

You'll start receiving severe weather alerts in your inbox..

×

10-Day Weather Forecast

Almanac

Astronomy

Jun. 23, 2017 Rise Set
Actual Time
Civil Twilight
Nautical Twilight
Astronomical Twilight
Moon
Length of Visible Light
Length of Day
Tomorrow will be .
, % of the Moon is Illuminated

Today's Extremes

State Highs State Lows

Community

WunderPhotos

Category 6

Welcome to Category 6. This is the collective home for Weather Underground's featured writeups by Dr. Jeff Masters (right), Bob Henson (left), Chris Burt, and other regular contributors.

Nearby

Air Quality

  Air Quality AQ Index Pollutant
Not available.

Snow Depth

Station Depth Elevation

Earthquake Activity

City Distance Mag. Time & Date
Minimum magnitude displayed is 2.5.

Coastal Water Temperatures

Place Temperature

Stations

Nearby Weather Stations

Station Location Temp. Windchill Dew Point Humidity Wind Precip. Elev Updated Type
                   

Watches & Warnings

Wind Advisory
Issued: 8:08 PM MDT Jun. 23, 2017 – National Weather Service

... Wind Advisory remains in effect until 2 am MDT Saturday...
... Heat advisory has expired...

* location... the middle Rio Grande Valley including the
Albuquerque Metro area.

* Winds... increasing from the east at 25 to 35 mph with
occasional gusts to 50 mph in areas downwind of bear and
Tijeras canyons.

* Timing... winds will abruptly strengthen this evening, then
persist through the early morning hours Saturday.

* Visibility... widespread visibility reductions are not
anticipated.

* Local impacts... strong East Canyon winds will create dangerous
cross winds on north to south oriented roads this evening.

Precautionary/preparedness actions...

Motorists should exercise caution while travelling. Sudden gusts
of wind may cause you to lose control of your vehicle. Extra
attention should be given to cross winds.